Time;durP1;ratioP1;P1;durP2;ratioP2;P2;SDS_P1;SDS_P2;PMS_P1;PMS_P2;Temp;Humidity;BMP_temperature;BMP_pressure;BME280_temperature;BME280_humidity;BME280_pressure;Samples;Min_cycle;Max_cycle;Signal;HPM_P1;HPM_P2
2021/05/03 00:01:54;;;;;;;16.60;10.93;;;;;;;14.16;82.54;98336.05;130362;1098;22557;-63
2021/05/03 00:04:22;;;;;;;16.30;12.05;;;;;;;14.15;82.66;98337.17;130408;1098;22693;-63
2021/05/03 00:06:54;;;;;;;17.58;12.28;;;;;;;14.12;82.28;98337.81;130410;1098;23119;-62
2021/05/03 00:09:22;;;;;;;17.50;10.30;;;;;;;14.11;82.48;98341.66;130385;1098;22551;-62
2021/05/03 00:12:10;;;;;;;16.05;9.30;;;;;;;14.09;82.49;98336.49;130369;1098;22652;-62
2021/05/03 00:14:58;;;;;;;20.00;10.13;;;;;;;14.09;82.53;98341.16;130369;1098;22545;-62
2021/05/03 00:17:26;;;;;;;11.28;8.03;;;;;;;14.07;82.69;98348.88;130379;1098;22628;-62
2021/05/03 00:19:54;;;;;;;12.25;9.43;;;;;;;14.07;82.65;98343.39;130418;1098;22518;-62
2021/05/03 00:22:22;;;;;;;18.58;10.10;;;;;;;14.06;83.04;98347.25;130345;1098;23265;-62
2021/05/03 00:24:50;;;;;;;12.95;10.93;;;;;;;14.05;82.93;98337.41;130305;1098;22564;-62
2021/05/03 00:27:18;;;;;;;17.50;11.98;;;;;;;14.03;82.83;98345.13;130378;1098;22541;-62
2021/05/03 00:30:06;;;;;;;15.78;9.53;;;;;;;14.01;82.67;98337.22;130368;1098;22581;-62
2021/05/03 00:32:34;;;;;;;21.73;10.33;;;;;;;14.01;82.89;98337.22;130378;1098;22536;-62
2021/05/03 00:35:02;;;;;;;12.30;8.83;;;;;;;14.00;82.63;98341.07;130360;1098;22529;-61
2021/05/03 00:37:30;;;;;;;12.98;7.53;;;;;;;13.99;83.16;98335.93;130405;1098;22573;-62
2021/05/03 00:39:58;;;;;;;11.18;7.58;;;;;;;13.98;82.97;98346.07;130350;1097;22572;-62
2021/05/03 00:42:26;;;;;;;14.75;7.78;;;;;;;13.99;82.91;98355.91;130392;1098;22631;-62
2021/05/03 00:44:53;;;;;;;16.90;8.95;;;;;;;13.98;82.84;98356.22;130346;1098;22546;-62
2021/05/03 00:47:22;;;;;;;11.43;8.00;;;;;;;13.97;82.78;98358.14;130357;1098;22543;-62
2021/05/03 00:49:50;;;;;;;13.58;8.60;;;;;;;13.95;82.70;98354.90;130328;1098;22572;-61
2021/05/03 00:52:17;;;;;;;13.55;8.63;;;;;;;13.94;82.20;98356.02;130385;1098;22601;-62
2021/05/03 00:54:45;;;;;;;8.33;6.40;;;;;;;13.94;82.22;98360.68;130369;1098;22652;-61
2021/05/03 00:57:13;;;;;;;9.53;5.50;;;;;;;13.91;81.84;98367.58;126482;1098;23021;-61
2021/05/03 00:59:42;;;;;;;9.48;6.23;;;;;;;13.89;81.48;98367.07;130290;1098;23595;-61
2021/05/03 01:02:09;;;;;;;12.20;6.93;;;;;;;13.87;81.36;98360.27;130413;1098;23248;-60
2021/05/03 01:04:37;;;;;;;10.63;6.73;;;;;;;13.85;80.74;98378.97;130351;1098;23146;-62
2021/05/03 01:07:05;;;;;;;9.73;6.40;;;;;;;13.82;80.22;98372.17;130395;1098;22537;-61
2021/05/03 01:09:34;;;;;;;11.40;5.80;;;;;;;13.76;79.84;98374.20;130343;1098;22528;-62
2021/05/03 01:12:02;;;;;;;10.80;5.38;;;;;;;13.73;78.92;98368.52;130409;1098;22610;-61
2021/05/03 01:14:30;;;;;;;9.00;5.33;;;;;;;13.70;78.43;98367.23;130390;1098;23445;-61
2021/05/03 01:16:58;;;;;;;6.83;4.18;;;;;;;13.67;77.80;98367.84;130333;1097;22612;-61
2021/05/03 01:19:28;;;;;;;6.95;4.25;;;;;;;13.64;77.07;98382.13;130370;1098;22701;-60
2021/05/03 01:21:57;;;;;;;9.73;4.38;;;;;;;13.60;76.66;98380.30;130341;1098;22580;-61
2021/05/03 01:24:25;;;;;;;5.55;3.95;;;;;;;13.55;75.95;98380.42;130382;1098;22548;-60
2021/05/03 01:26:53;;;;;;;5.15;4.05;;;;;;;13.50;75.25;98384.06;130321;1098;22516;-60
2021/05/03 01:29:21;;;;;;;7.05;4.18;;;;;;;13.46;75.19;98388.52;130377;1098;22524;-60
2021/05/03 01:31:50;;;;;;;8.10;4.40;;;;;;;13.41;75.12;98385.90;130339;1098;22651;-60
2021/05/03 01:34:18;;;;;;;5.48;4.40;;;;;;;13.36;75.18;98392.27;130391;1098;23389;-61
2021/05/03 01:36:46;;;;;;;4.98;3.93;;;;;;;13.33;75.30;98389.33;130355;1098;22483;-66
2021/05/03 01:39:15;;;;;;;7.98;4.28;;;;;;;13.30;75.25;98388.00;130366;1098;22562;-66
2021/05/03 01:41:44;;;;;;;4.93;3.60;;;;;;;13.27;75.29;98385.09;130277;1098;23529;-66
2021/05/03 01:44:13;;;;;;;6.50;4.30;;;;;;;13.23;75.22;98378.59;130395;1097;23588;-66
2021/05/03 01:47:01;;;;;;;8.75;4.30;;;;;;;13.19;75.44;98389.32;130318;1098;23354;-66
2021/05/03 01:49:29;;;;;;;6.53;4.20;;;;;;;13.13;74.96;98390.48;130337;1098;22572;-66
2021/05/03 01:51:58;;;;;;;5.63;4.23;;;;;;;13.07;75.26;98389.78;130306;1098;22648;-63
2021/05/03 01:54:26;;;;;;;6.08;4.38;;;;;;;13.01;75.53;98374.57;130379;1098;22558;-63
2021/05/03 01:56:54;;;;;;;5.90;4.33;;;;;;;12.95;75.19;98375.80;130347;1098;22672;-62
2021/05/03 01:59:21;;;;;;;6.68;3.93;;;;;;;12.93;75.17;98377.20;130381;1098;22528;-63
2021/05/03 02:01:50;;;;;;;4.98;3.33;;;;;;;12.88;74.92;98383.56;130370;1098;22542;-63
2021/05/03 02:04:18;;;;;;;8.98;3.70;;;;;;;12.85;75.25;98377.88;130412;1098;23048;-63
2021/05/03 02:06:45;;;;;;;6.53;3.75;;;;;;;12.82;75.09;98383.97;127352;1098;22912;-62
2021/05/03 02:09:13;;;;;;;5.48;3.50;;;;;;;12.80;75.45;98386.19;130376;1098;22551;-63
2021/05/03 02:11:41;;;;;;;5.58;4.55;;;;;;;12.75;75.09;98390.63;130414;1098;22517;-62
2021/05/03 02:14:10;;;;;;;10.88;3.63;;;;;;;12.71;73.88;98392.33;130337;1098;22567;-63
2021/05/03 02:16:38;;;;;;;7.13;3.18;;;;;;;12.64;73.77;98394.65;130360;1098;22602;-63
2021/05/03 02:19:06;;;;;;;4.88;3.30;;;;;;;12.59;73.60;98397.45;130349;1098;23371;-63
2021/05/03 02:21:33;;;;;;;3.95;3.10;;;;;;;12.54;73.06;98400.29;130460;1098;22524;-63
2021/05/03 02:24:01;;;;;;;5.10;2.85;;;;;;;12.51;73.14;98408.27;130319;1098;22533;-63
2021/05/03 02:26:30;;;;;;;3.50;2.68;;;;;;;12.47;72.96;98418.97;130417;1096;22566;-64
2021/05/03 02:28:58;;;;;;;3.43;2.68;;;;;;;12.41;72.35;98417.41;130384;1097;22537;-64
2021/05/03 02:31:26;;;;;;;6.60;2.60;;;;;;;12.34;71.95;98411.52;130386;1097;23614;-65
2021/05/03 02:33:54;;;;;;;3.38;2.45;;;;;;;12.28;71.69;98426.35;130317;1095;22582;-64
2021/05/03 02:36:22;;;;;;;3.10;2.65;;;;;;;12.23;71.78;98429.18;128132;1097;22900;-64
2021/05/03 02:38:50;;;;;;;5.43;2.70;;;;;;;12.19;71.44;98428.95;130247;1096;25010;-65
2021/05/03 02:41:18;;;;;;;5.28;2.40;;;;;;;12.13;70.87;98430.11;130434;1097;23317;-65
2021/05/03 02:43:46;;;;;;;7.45;3.13;;;;;;;12.05;71.20;98441.71;130313;1097;22533;-65
2021/05/03 02:46:14;;;;;;;3.05;2.55;;;;;;;11.98;70.42;98443.97;130394;1095;22537;-65
2021/05/03 02:48:42;;;;;;;3.70;2.80;;;;;;;11.87;69.32;98434.30;130354;1097;22552;-64
2021/05/03 02:51:10;;;;;;;4.05;2.68;;;;;;;11.78;69.60;98441.52;130406;1097;22545;-64
2021/05/03 02:53:38;;;;;;;2.45;2.15;;;;;;;11.72;69.50;98459.02;130367;1095;23462;-64
2021/05/03 02:56:06;;;;;;;3.95;2.18;;;;;;;11.64;69.29;98452.30;130410;1097;22597;-64
2021/05/03 02:58:34;;;;;;;3.35;2.23;;;;;;;11.55;68.75;98463.02;130391;1096;22550;-64
2021/05/03 03:01:01;;;;;;;3.38;2.00;;;;;;;11.46;69.20;98478.41;130404;1097;23276;-64
2021/05/03 03:03:29;;;;;;;3.88;2.33;;;;;;;11.39;69.24;98480.69;130413;1097;22537;-65
2021/05/03 03:05:57;;;;;;;3.50;2.00;;;;;;;11.32;69.09;98480.20;130353;1095;22671;-65
2021/05/03 03:08:25;;;;;;;4.10;2.18;;;;;;;11.23;69.06;98493.66;130392;1097;23054;-65
2021/05/03 03:10:54;;;;;;;8.98;2.38;;;;;;;11.15;68.98;98491.53;130358;1097;23403;-65
2021/05/03 03:13:22;;;;;;;5.60;2.05;;;;;;;11.06;68.77;98495.17;130350;1098;22662;-65
2021/05/03 03:15:49;;;;;;;3.40;2.00;;;;;;;10.96;69.01;98513.22;130397;1095;22709;-65
2021/05/03 03:18:18;;;;;;;5.55;1.68;;;;;;;10.89;69.11;98512.75;130426;1095;22576;-65
2021/05/03 03:20:46;;;;;;;2.78;2.35;;;;;;;10.84;68.45;98522.86;130357;1098;22639;-64
2021/05/03 03:23:13;;;;;;;4.88;2.20;;;;;;;10.75;68.34;98525.39;130405;1097;23085;-63
2021/05/03 03:25:41;;;;;;;4.05;2.33;;;;;;;10.69;68.04;98522.97;130333;1098;22557;-63
2021/05/03 03:28:09;;;;;;;4.13;2.50;;;;;;;10.60;67.88;98531.75;130435;1095;22977;-63
2021/05/03 03:30:37;;;;;;;8.45;2.30;;;;;;;10.54;67.77;98532.05;130408;1095;23423;-63
2021/05/03 03:33:05;;;;;;;8.15;2.65;;;;;;;10.49;68.03;98545.72;130407;1098;23193;-63
2021/05/03 03:35:33;;;;;;;3.88;2.20;;;;;;;10.45;67.86;98539.20;130400;1095;22542;-63
2021/05/03 03:38:01;;;;;;;4.08;2.55;;;;;;;10.41;68.24;98546.30;130416;1095;22559;-63
2021/05/03 03:40:29;;;;;;;3.68;2.20;;;;;;;10.39;68.19;98543.06;130397;1095;22580;-63
2021/05/03 03:42:56;;;;;;;3.40;2.38;;;;;;;10.38;68.48;98530.55;130386;1098;22502;-63
2021/05/03 03:45:24;;;;;;;25.70;2.83;;;;;;;10.43;68.38;98536.75;129978;1095;22544;-63
2021/05/03 03:47:53;;;;;;;6.10;2.58;;;;;;;10.43;67.83;98541.39;130302;1097;22620;-62
2021/05/03 03:50:21;;;;;;;4.05;2.50;;;;;;;10.37;68.01;98550.70;130415;1095;22530;-65
2021/05/03 03:52:49;;;;;;;7.00;3.13;;;;;;;10.35;68.21;98550.16;130397;1095;22559;-65
2021/05/03 03:55:16;;;;;;;7.78;2.20;;;;;;;10.34;67.98;98556.70;130420;1095;22498;-65
2021/05/03 03:57:44;;;;;;;4.08;2.48;;;;;;;10.33;67.91;98568.67;130371;1095;22535;-64
2021/05/03 04:00:12;;;;;;;5.75;2.00;;;;;;;10.34;67.78;98573.03;130434;1096;22586;-65
2021/05/03 04:02:40;;;;;;;3.83;2.38;;;;;;;10.32;67.77;98575.22;130401;1097;22483;-64
2021/05/03 04:13:08;;;;;;;3.58;2.50;;;;;;;10.15;67.29;98587.23;130415;1095;22535;-65
2021/05/03 04:26:28;;;;;;;2.43;1.83;;;;;;;10.27;67.39;98608.71;130049;1098;22718;-65
2021/05/03 04:28:56;;;;;;;5.57;3.20;;;;;;;10.35;66.65;98610.06;129956;1098;22726;-67
2021/05/03 04:31:24;;;;;;;2.85;1.95;;;;;;;10.38;66.72;98621.22;130036;1100;22539;-67
2021/05/03 04:33:52;;;;;;;6.60;2.70;;;;;;;10.45;66.13;98626.34;130021;1098;22609;-68
2021/05/03 04:36:20;;;;;;;2.15;1.60;;;;;;;10.55;65.85;98626.29;130021;1098;22682;-66
2021/05/03 04:38:48;;;;;;;5.53;1.70;;;;;;;10.65;65.85;98633.62;130021;1098;22567;-67
2021/05/03 04:41:16;;;;;;;3.28;1.75;;;;;;;10.77;65.16;98642.27;129979;1099;22623;-67
2021/05/03 04:43:44;;;;;;;2.53;1.70;;;;;;;10.87;64.83;98634.03;129983;1098;22592;-67
2021/05/03 04:46:12;;;;;;;2.00;1.60;;;;;;;10.94;63.84;98634.55;127996;1098;23231;-67
2021/05/03 04:48:40;;;;;;;2.45;1.53;;;;;;;11.01;63.03;98626.85;130015;1098;22569;-67
2021/05/03 04:51:08;;;;;;;2.20;1.45;;;;;;;11.05;62.60;98622.47;130071;1098;23442;-66
2021/05/03 04:53:36;;;;;;;1.78;1.50;;;;;;;11.07;62.37;98628.46;129979;1099;22629;-67
2021/05/03 04:56:04;;;;;;;5.10;1.30;;;;;;;11.16;62.60;98631.39;130208;1097;22548;-67
2021/05/03 04:58:32;;;;;;;1.75;1.08;;;;;;;11.25;62.20;98630.48;130357;1097;22500;-67
2021/05/03 05:01:06;;;;;;;1.30;1.13;;;;;;;11.36;61.90;98631.25;130390;1095;22991;-66
2021/05/03 05:03:34;;;;;;;2.38;1.38;;;;;;;11.45;61.12;98628.72;130311;1098;22649;-67
2021/05/03 05:06:02;;;;;;;4.80;1.18;;;;;;;11.47;60.25;98642.89;130405;1096;22524;-66
2021/05/03 05:08:30;;;;;;;5.65;1.15;;;;;;;11.45;60.56;98640.44;130377;1095;23714;-67
2021/05/03 05:10:58;;;;;;;1.98;1.30;;;;;;;11.44;60.28;98649.72;130379;1096;23642;-67
2021/05/03 05:13:26;;;;;;;2.03;1.18;;;;;;;11.40;60.32;98653.33;130382;1097;23121;-66
2021/05/03 05:15:54;;;;;;;1.50;1.20;;;;;;;11.40;60.18;98659.56;130378;1095;22627;-67
2021/05/03 05:18:25;;;;;;;1.18;1.00;;;;;;;11.37;60.27;98651.16;130381;1095;22642;-66
2021/05/03 05:20:53;;;;;;;4.73;0.95;;;;;;;11.37;60.69;98651.16;130335;1095;23038;-67
2021/05/03 05:23:21;;;;;;;2.08;1.20;;;;;;;11.37;61.08;98651.97;130373;1097;22543;-67
2021/05/03 05:25:50;;;;;;;2.15;1.10;;;;;;;11.42;60.75;98643.73;130439;1095;22508;-67
2021/05/03 05:28:18;;;;;;;1.95;1.18;;;;;;;11.43;60.56;98641.81;130402;1095;22549;-67
2021/05/03 05:30:46;;;;;;;5.35;2.43;;;;;;;11.44;60.53;98641.53;130395;1097;23603;-67
2021/05/03 05:33:14;;;;;;;2.63;1.20;;;;;;;11.47;60.37;98632.80;130374;1097;22535;-66
2021/05/03 05:35:42;;;;;;;2.83;1.48;;;;;;;11.47;59.99;98627.34;130351;1097;23640;-68
2021/05/03 05:38:11;;;;;;;5.20;1.10;;;;;;;11.43;60.11;98625.45;130342;1097;23057;-67
2021/05/03 05:40:38;;;;;;;4.08;1.10;;;;;;;11.40;60.29;98628.78;130378;1095;22564;-67
2021/05/03 05:43:06;;;;;;;4.03;1.25;;;;;;;11.41;60.39;98631.19;130413;1095;23357;-66
2021/05/03 05:45:35;;;;;;;1.60;1.08;;;;;;;11.42;60.33;98634.73;130334;1098;22564;-67
2021/05/03 05:48:03;;;;;;;3.65;1.20;;;;;;;11.43;60.22;98645.36;130404;1097;23280;-66
2021/05/03 05:50:32;;;;;;;6.50;1.35;;;;;;;11.47;60.03;98631.98;130328;1097;23553;-66
2021/05/03 05:53:05;;;;;;;5.10;1.20;;;;;;;11.49;59.46;98636.05;130347;1098;22581;-66
2021/05/03 05:55:33;;;;;;;1.70;1.03;;;;;;;11.51;59.70;98644.77;130368;1096;23095;-66
2021/05/03 05:58:02;;;;;;;3.78;1.18;;;;;;;11.52;59.36;98654.58;130361;1097;22559;-66
2021/05/03 06:00:30;;;;;;;2.90;1.05;;;;;;;11.50;58.97;98658.69;130382;1098;22503;-66
2021/05/03 06:02:58;;;;;;;3.18;0.93;;;;;;;11.48;58.71;98661.70;130300;1097;22539;-67
2021/05/03 06:05:26;;;;;;;2.05;1.10;;;;;;;11.44;59.84;98666.09;130330;1097;22516;-67
2021/05/03 06:07:55;;;;;;;3.30;1.05;;;;;;;11.48;59.94;98683.52;130396;1095;22506;-68
2021/05/03 06:10:23;;;;;;;1.40;0.88;;;;;;;11.51;59.18;98665.78;130347;1097;22605;-67
2021/05/03 06:12:51;;;;;;;1.33;0.95;;;;;;;11.50;58.87;98684.06;130355;1097;22558;-62
2021/05/03 06:15:19;;;;;;;2.85;0.95;;;;;;;11.46;59.22;98682.98;130384;1097;22656;-63
2021/05/03 06:17:47;;;;;;;2.35;0.90;;;;;;;11.52;59.67;98692.77;130354;1097;22543;-64
2021/05/03 06:20:16;;;;;;;3.53;1.10;;;;;;;11.57;59.35;98698.17;130396;1095;23455;-63
2021/05/03 06:22:43;;;;;;;1.68;1.10;;;;;;;11.62;58.69;98708.24;130345;1098;22618;-63
2021/05/03 06:25:11;;;;;;;2.33;1.00;;;;;;;11.61;58.57;98696.52;130437;1097;22653;-62
2021/05/03 06:27:39;;;;;;;1.95;0.93;;;;;;;11.60;59.23;98696.80;130402;1095;22761;-65
2021/05/03 06:30:08;;;;;;;5.00;1.03;;;;;;;11.61;58.78;98707.42;130324;1097;22575;-65
2021/05/03 06:32:36;;;;;;;3.23;0.95;;;;;;;11.66;58.62;98712.86;130343;1095;22653;-65
2021/05/03 06:35:05;;;;;;;6.23;1.28;;;;;;;11.71;58.56;98714.71;130383;1097;22542;-65
2021/05/03 06:37:33;;;;;;;1.70;0.85;;;;;;;11.74;57.88;98721.52;130353;1096;23093;-65
2021/05/03 06:40:01;;;;;;;3.08;1.05;;;;;;;11.73;57.50;98722.61;130367;1097;22735;-65
2021/05/03 06:42:28;;;;;;;5.43;1.53;;;;;;;11.72;57.43;98726.44;130386;1098;22500;-65
2021/05/03 06:44:56;;;;;;;3.68;1.40;;;;;;;11.70;57.08;98724.81;130351;1097;22559;-65
2021/05/03 06:47:27;;;;;;;5.03;1.13;;;;;;;11.70;57.40;98727.53;130437;1095;22572;-64
2021/05/03 06:49:56;;;;;;;1.50;1.05;;;;;;;11.72;57.39;98735.44;130435;1095;22510;-64
2021/05/03 06:52:24;;;;;;;4.80;1.45;;;;;;;11.74;57.37;98732.44;130407;1095;22540;-66
2021/05/03 06:54:52;;;;;;;3.08;1.10;;;;;;;11.73;56.76;98738.98;130404;1095;23658;-66
2021/05/03 06:57:20;;;;;;;1.65;1.08;;;;;;;11.67;57.16;98738.23;130398;1095;22536;-67
2021/05/03 06:59:48;;;;;;;1.38;0.98;;;;;;;11.66;57.92;98742.88;130352;1097;22529;-66
2021/05/03 07:02:16;;;;;;;3.73;1.25;;;;;;;11.69;58.05;98747.73;130360;1095;22648;-67
2021/05/03 07:04:45;;;;;;;1.68;1.30;;;;;;;11.73;58.09;98752.63;130245;1098;23141;-65
2021/05/03 07:07:13;;;;;;;2.00;1.10;;;;;;;11.76;57.78;98761.11;130415;1097;22510;-66
2021/05/03 07:09:47;;;;;;;4.23;1.33;;;;;;;11.79;57.86;98757.00;130387;1095;22700;-70
2021/05/03 07:12:18;;;;;;;3.85;1.20;;;;;;;11.82;58.12;98762.71;130445;1095;24944;-67
2021/05/03 07:14:47;;;;;;;2.90;1.03;;;;;;;11.87;58.42;98749.00;130372;1095;22691;-66
2021/05/03 07:17:15;;;;;;;3.35;1.30;;;;;;;11.91;57.93;98752.80;130422;1097;22520;-66
2021/05/03 07:19:44;;;;;;;2.45;1.00;;;;;;;11.93;57.48;98760.70;130305;1098;22607;-67
2021/05/03 07:22:12;;;;;;;6.85;1.35;;;;;;;11.89;57.33;98771.38;130413;1097;22557;-66
2021/05/03 07:24:41;;;;;;;4.78;0.90;;;;;;;11.85;57.82;98772.22;130353;1096;22531;-67
2021/05/03 07:27:11;;;;;;;2.80;0.95;;;;;;;11.84;57.69;98778.77;130387;1095;22575;-66
2021/05/03 07:29:39;;;;;;;5.60;1.23;;;;;;;11.84;57.37;98776.86;130378;1095;22530;-65
2021/05/03 07:32:07;;;;;;;2.95;1.13;;;;;;;11.80;56.88;98778.55;130459;1095;22519;-65
2021/05/03 07:34:39;;;;;;;2.43;1.20;;;;;;;11.78;57.35;98769.83;130406;1095;22680;-65
2021/05/03 07:37:07;;;;;;;5.60;1.00;;;;;;;11.76;56.84;98779.39;130411;1095;22518;-65
2021/05/03 07:39:35;;;;;;;1.73;0.98;;;;;;;11.70;56.42;98779.38;130365;1098;22537;-66
2021/05/03 07:42:04;;;;;;;2.00;1.35;;;;;;;11.68;56.39;98789.80;130443;1098;23094;-65
2021/05/03 07:44:51;;;;;;;6.03;1.38;;;;;;;11.63;56.47;98786.27;130376;1095;22666;-66
2021/05/03 07:47:19;;;;;;;2.68;1.20;;;;;;;11.57;56.72;98790.93;130419;1095;22560;-65
2021/05/03 07:49:47;;;;;;;2.78;1.25;;;;;;;11.53;57.26;98786.34;130416;1095;22594;-65
2021/05/03 07:52:15;;;;;;;6.18;1.33;;;;;;;11.51;57.58;98786.63;130369;1097;23170;-66
2021/05/03 07:54:44;;;;;;;2.85;1.10;;;;;;;11.51;57.94;98793.99;130375;1098;22550;-66
2021/05/03 07:57:12;;;;;;;4.73;1.33;;;;;;;11.48;57.99;98795.36;130309;1096;22547;-66
2021/05/03 07:59:40;;;;;;;4.63;1.38;;;;;;;11.47;57.99;98795.64;130371;1097;23122;-66
2021/05/03 08:02:08;;;;;;;5.50;1.23;;;;;;;11.45;58.45;98793.19;130371;1095;22670;-66
2021/05/03 08:04:36;;;;;;;3.38;1.55;;;;;;;11.42;58.34;98807.38;130380;1098;22600;-66
2021/05/03 08:07:05;;;;;;;3.35;1.40;;;;;;;11.40;58.54;98803.33;130391;1097;22548;-66
2021/05/03 08:09:33;;;;;;;2.95;1.15;;;;;;;11.39;58.63;98809.88;130444;1095;23165;-66
2021/05/03 08:12:01;;;;;;;4.50;1.15;;;;;;;11.35;58.75;98809.63;130396;1095;22652;-67
2021/05/03 08:14:29;;;;;;;2.10;1.20;;;;;;;11.31;58.74;98805.81;130398;1096;22563;-66
2021/05/03 08:17:04;;;;;;;2.65;1.13;;;;;;;11.26;58.80;98812.09;130425;1095;23414;-66
2021/05/03 08:19:33;;;;;;;4.53;1.48;;;;;;;11.22;59.21;98821.14;130466;1095;23564;-67
2021/05/03 08:22:02;;;;;;;3.35;1.63;;;;;;;11.17;58.58;98815.69;130364;1095;23382;-66
2021/05/03 08:24:30;;;;;;;5.33;1.40;;;;;;;11.11;58.75;98827.73;130431;1095;22614;-66
2021/05/03 08:26:59;;;;;;;4.35;1.70;;;;;;;11.05;58.72;98826.92;130405;1097;23048;-66
2021/05/03 08:29:26;;;;;;;2.73;1.50;;;;;;;11.02;58.60;98830.20;130417;1095;22524;-66
2021/05/03 08:31:56;;;;;;;2.83;1.60;;;;;;;10.95;58.52;98825.05;130331;1098;22671;-66
2021/05/03 08:34:25;;;;;;;6.25;1.43;;;;;;;10.93;58.02;98829.14;130462;1095;22649;-66
2021/05/03 08:36:55;;;;;;;4.13;1.57;;;;;;;10.90;58.23;98822.33;127106;1090;22776;-65
2021/05/03 08:39:24;;;;;;;5.00;1.65;;;;;;;10.91;58.24;98832.14;125838;1097;23512;-66
2021/05/03 08:41:56;;;;;;;3.70;1.63;;;;;;;10.92;58.14;98832.96;130371;1098;23139;-66
2021/05/03 08:44:26;;;;;;;1.98;1.38;;;;;;;10.98;57.42;98823.66;130422;1096;23319;-66
2021/05/03 08:46:55;;;;;;;1.70;1.10;;;;;;;11.02;57.66;98824.74;130386;1095;22714;-66
2021/05/03 08:50:13;;;;;;;3.90;1.00;;;;;;;11.06;56.52;98817.66;130383;1095;22538;-69
2021/05/03 08:52:24;;;;;;;5.50;1.70;;;;;;;11.08;56.32;98837.28;130365;1095;22599;-68
2021/05/03 08:54:52;;;;;;;6.63;1.28;;;;;;;11.06;55.82;98831.28;130408;1095;22518;-68
2021/05/03 08:57:20;;;;;;;1.83;1.18;;;;;;;11.07;56.79;98829.38;130402;1097;22536;-69
2021/05/03 08:59:48;;;;;;;4.63;1.50;;;;;;;11.11;56.81;98833.19;130373;1095;22562;-68
2021/05/03 09:02:16;;;;;;;1.78;1.33;;;;;;;11.14;56.47;98833.42;130449;1097;22487;-69
2021/05/03 09:04:45;;;;;;;1.33;1.00;;;;;;;11.18;56.16;98837.23;130390;1095;23211;-69
2021/05/03 09:07:14;;;;;;;2.55;1.30;;;;;;;11.20;56.01;98839.68;130432;1095;22667;-69
2021/05/03 09:09:43;;;;;;;2.90;1.35;;;;;;;11.19;55.98;98844.31;130347;1096;22524;-69
2021/05/03 09:12:13;;;;;;;1.28;1.00;;;;;;;11.20;55.65;98843.22;130387;1097;22539;-69
2021/05/03 09:14:51;;;;;;;4.55;1.30;;;;;;;11.22;55.79;98838.31;130398;1095;22566;-69
2021/05/03 09:17:40;;;;;;;9.55;1.63;;;;;;;11.28;56.29;98844.55;130379;1098;22572;-69
2021/05/03 09:20:14;;;;;;;1.30;1.13;;;;;;;11.35;56.72;98842.34;130363;1097;22597;-68
2021/05/03 09:25:31;;;;;;;2.15;1.30;;;;;;;11.44;56.27;98832.47;130373;1096;22548;-68
2021/05/03 09:28:05;;;;;;;3.33;1.30;;;;;;;11.50;56.10;98819.64;130409;1095;22629;-69
2021/05/03 09:30:43;;;;;;;4.13;1.63;;;;;;;11.54;56.18;98812.53;130341;1098;22585;-69
2021/05/03 09:33:15;;;;;;;6.90;1.48;;;;;;;11.59;55.40;98812.48;130422;1095;22520;-69
2021/05/03 09:35:53;;;;;;;1.93;1.40;;;;;;;11.62;55.87;98806.47;130386;1098;22522;-69
2021/05/03 09:38:40;;;;;;;4.80;1.70;;;;;;;11.65;55.68;98823.09;130364;1098;23109;-69
2021/05/03 09:41:23;;;;;;;5.70;2.40;;;;;;;11.69;55.51;98829.59;130355;1095;22531;-69
2021/05/03 09:44:03;;;;;;;1.43;1.33;;;;;;;11.70;55.36;98817.59;130409;1095;22558;-69
2021/05/03 09:46:39;;;;;;;9.38;1.93;;;;;;;11.70;55.39;98822.23;130352;1097;23430;-69
2021/05/03 09:49:16;;;;;;;1.95;1.50;;;;;;;11.72;55.13;98833.68;130404;1097;22535;-69
2021/05/03 09:51:49;;;;;;;2.48;1.50;;;;;;;11.75;55.63;98835.03;130381;1097;22637;-69
2021/05/03 09:54:28;;;;;;;2.80;1.53;;;;;;;11.79;55.44;98830.69;130415;1095;22566;-69
2021/05/03 09:57:06;;;;;;;8.30;1.58;;;;;;;11.82;54.33;98846.50;130375;1097;22768;-69
2021/05/03 09:59:45;;;;;;;5.43;1.45;;;;;;;11.77;53.99;98847.34;130396;1098;22510;-69
2021/05/03 10:05:06;;;;;;;5.95;1.68;;;;;;;11.75;54.59;98849.50;130381;1097;22516;-69
2021/05/03 10:07:40;;;;;;;6.38;1.90;;;;;;;11.80;54.94;98851.42;130430;1095;22523;-69
2021/05/03 10:10:17;;;;;;;10.83;1.85;;;;;;;11.85;54.86;98862.29;130406;1095;22940;-69
2021/05/03 10:12:45;;;;;;;2.73;1.78;;;;;;;11.91;54.32;98858.45;130365;1095;22506;-70
2021/05/03 10:15:15;;;;;;;6.83;1.60;;;;;;;11.95;54.07;98867.70;130405;1098;22509;-67
2021/05/03 10:17:44;;;;;;;6.23;1.68;;;;;;;11.94;53.86;98866.08;130387;1097;22535;-67
2021/05/03 10:20:14;;;;;;;1.30;1.20;;;;;;;11.98;54.30;98873.40;130397;1097;22535;-68
2021/05/03 10:22:43;;;;;;;5.45;1.93;;;;;;;12.06;54.70;98869.27;130360;1097;22615;-67
2021/05/03 10:25:12;;;;;;;4.38;1.43;;;;;;;12.16;54.41;98862.91;130423;1095;22550;-67
2021/05/03 10:27:42;;;;;;;3.45;1.60;;;;;;;12.21;53.02;98857.42;130356;1097;24532;-67
2021/05/03 10:30:23;;;;;;;2.95;1.75;;;;;;;12.20;52.78;98870.26;130387;1097;22555;-69
2021/05/03 10:32:58;;;;;;;13.53;1.83;;;;;;;12.15;53.02;98861.27;130361;1095;22654;-68
2021/05/03 10:35:31;;;;;;;1.73;1.28;;;;;;;12.12;53.40;98873.58;130410;1097;22535;-67
2021/05/03 10:37:58;;;;;;;6.40;1.68;;;;;;;12.13;53.90;98875.20;130335;1097;22529;-66
2021/05/03 10:43:04;;;;;;;9.55;2.10;;;;;;;12.23;53.37;98875.16;125472;1092;22770;-65
2021/05/03 10:45:51;;;;;;;4.18;1.98;;;;;;;12.27;52.98;98880.84;130016;1101;22538;-66
2021/05/03 10:51:28;;;;;;;7.85;1.93;;;;;;;12.26;52.70;98880.02;130005;1101;23594;-66
2021/05/03 10:53:57;;;;;;;4.63;1.65;;;;;;;12.19;52.12;98873.27;129942;1101;22555;-66
2021/05/03 10:56:38;;;;;;;7.78;1.68;;;;;;;12.14;52.02;98885.03;130027;1101;22511;-66
2021/05/03 10:59:13;;;;;;;2.98;1.75;;;;;;;12.11;52.11;98888.36;129975;1101;22541;-66
2021/05/03 11:01:57;;;;;;;1.90;1.38;;;;;;;12.07;52.46;98894.66;129987;1101;22691;-66
2021/05/03 11:04:28;;;;;;;4.53;1.50;;;;;;;12.06;52.08;98902.03;129873;1101;23395;-66
2021/05/03 11:06:56;;;;;;;1.88;1.45;;;;;;;12.06;52.82;98899.30;129996;1101;23268;-66
2021/05/03 11:11:59;;;;;;;3.03;1.50;;;;;;;12.11;53.12;98896.55;129988;1101;22585;-66
2021/05/03 11:14:29;;;;;;;1.90;1.57;;;;;;;12.20;52.76;98888.56;129957;1101;22549;-66
2021/05/03 11:17:09;;;;;;;1.83;1.40;;;;;;;12.31;52.52;98895.57;129991;1101;22557;-66
2021/05/03 11:22:42;;;;;;;5.43;2.30;;;;;;;12.48;52.02;98881.52;129948;1101;22672;-67
2021/05/03 11:25:16;;;;;;;1.70;1.58;;;;;;;12.51;51.58;98873.56;129871;1101;22548;-66
2021/05/03 11:33:14;;;;;;;2.58;2.00;;;;;;;12.57;52.31;98880.60;129946;1101;23247;-66
2021/05/03 11:38:28;;;;;;;9.25;2.10;;;;;;;12.70;52.60;98876.38;129934;1101;23276;-66
2021/05/03 11:41:23;;;;;;;9.60;1.90;;;;;;;12.77;52.52;98884.27;129906;1101;22599;-66
2021/05/03 11:46:32;;;;;;;2.85;1.95;;;;;;;12.86;51.98;98880.61;129874;1101;22560;-66
2021/05/03 11:49:09;;;;;;;4.13;2.18;;;;;;;12.87;51.64;98865.83;129885;1101;23394;-66
2021/05/03 11:51:44;;;;;;;2.98;1.80;;;;;;;12.85;51.09;98878.97;129943;1101;22635;-65
2021/05/03 11:54:31;;;;;;;16.50;1.95;;;;;;;12.84;50.88;98884.76;129906;1101;22544;-65
2021/05/03 11:57:19;;;;;;;3.13;1.98;;;;;;;12.79;49.55;98876.59;129910;1101;22593;-65
2021/05/03 11:59:58;;;;;;;2.95;1.75;;;;;;;12.66;49.31;98872.61;129891;1101;23594;-65
2021/05/03 12:02:27;;;;;;;4.80;1.90;;;;;;;12.57;48.75;98891.53;129933;1101;23653;-65
2021/05/03 12:04:55;;;;;;;5.20;2.08;;;;;;;12.52;49.23;98904.44;129833;1101;23135;-65
2021/05/03 12:07:25;;;;;;;10.85;1.90;;;;;;;12.50;49.13;98896.53;129983;1101;22565;-65
2021/05/03 12:10:11;;;;;;;4.98;1.60;;;;;;;12.49;49.07;98894.08;129982;1101;23170;-64
2021/05/03 12:12:47;;;;;;;7.45;1.45;;;;;;;12.48;49.37;98884.25;129975;1101;22539;-64
2021/05/03 12:15:26;;;;;;;7.93;1.50;;;;;;;12.48;49.67;98892.44;129827;1101;22538;-67
2021/05/03 12:18:00;;;;;;;16.38;2.48;;;;;;;12.53;50.02;98879.56;129933;1101;23483;-68
2021/05/03 12:20:30;;;;;;;7.75;2.50;;;;;;;12.63;50.02;98863.06;129884;1101;23200;-69
2021/05/03 12:23:02;;;;;;;4.20;1.68;;;;;;;12.73;50.05;98884.02;129891;1101;22519;-69
2021/05/03 12:25:51;;;;;;;7.10;1.60;;;;;;;12.81;49.99;98877.94;129897;1101;23498;-68